createdAt,value
2019-04-25T00:02:06.267Z,3.50
2019-04-25T00:04:34.734Z,3.53
2019-04-25T00:07:03.207Z,3.42
2019-04-25T00:09:33.372Z,3.60
2019-04-25T00:12:02.347Z,3.65
2019-04-25T00:14:31.474Z,4.22
2019-04-25T00:17:01.590Z,3.58
2019-04-25T00:19:31.676Z,4.22
2019-04-25T00:22:04.521Z,4.00
2019-04-25T00:24:49.964Z,3.87
2019-04-25T00:27:18.908Z,4.60
2019-04-25T00:29:47.372Z,4.65
2019-04-25T00:32:15.921Z,4.23
2019-04-25T00:34:45.589Z,4.00
2019-04-25T00:37:14.790Z,4.30
2019-04-25T00:39:43.925Z,4.35
2019-04-25T00:42:13.835Z,4.53
2019-04-25T00:44:44.548Z,5.10
2019-04-25T00:47:12.466Z,4.67
2019-04-25T00:49:43.827Z,4.87
2019-04-25T00:52:12.235Z,4.15
2019-04-25T00:54:41.355Z,4.72
2019-04-25T00:57:12.186Z,4.83
2019-04-25T00:59:45.532Z,4.47
2019-04-25T01:02:21.818Z,4.97
2019-04-25T01:04:51.850Z,5.15
2019-04-25T01:07:22.322Z,4.90
2019-04-25T01:09:52.451Z,4.95
2019-04-25T01:12:21.705Z,5.17
2019-04-25T01:14:52.839Z,4.72
2019-04-25T01:17:22.959Z,5.03
2019-04-25T01:19:51.850Z,5.33
2019-04-25T01:22:20.472Z,5.08
2019-04-25T01:24:51.408Z,4.58
2019-04-25T01:27:20.474Z,5.72
2019-04-25T01:29:49.808Z,5.10
2019-04-25T01:32:20.162Z,4.92
2019-04-25T01:34:58.927Z,5.20
2019-04-25T01:37:34.491Z,5.30
2019-04-25T01:40:11.236Z,5.30
2019-04-25T01:42:49.881Z,5.00
2019-04-25T01:45:20.072Z,5.42
2019-04-25T01:47:50.083Z,5.90
2019-04-25T01:50:18.693Z,5.62
2019-04-25T01:52:47.242Z,5.35
2019-04-25T01:55:15.723Z,5.30
2019-04-25T01:57:45.319Z,5.60
2019-04-25T02:00:16.119Z,5.90
2019-04-25T02:02:44.685Z,5.90
2019-04-25T02:05:14.492Z,6.30
2019-04-25T02:07:44.406Z,5.47
2019-04-25T02:10:13.674Z,5.90
2019-04-25T02:12:49.501Z,5.83
2019-04-25T02:15:19.659Z,6.15
2019-04-25T02:17:48.312Z,5.85
2019-04-25T02:20:16.840Z,5.78
2019-04-25T02:22:45.736Z,6.20
2019-04-25T02:25:14.253Z,6.20
2019-04-25T02:27:44.433Z,6.22
2019-04-25T02:30:15.452Z,5.80
2019-04-25T02:32:44.430Z,6.22
2019-04-25T02:35:14.710Z,6.25
2019-04-25T02:37:45.239Z,6.47
2019-04-25T02:40:17.260Z,6.30
2019-04-25T02:42:45.863Z,5.83
2019-04-25T02:45:16.641Z,6.50
2019-04-25T02:47:55.034Z,6.17
2019-04-25T02:50:37.114Z,7.13
2019-04-25T02:53:14.120Z,7.42
2019-04-25T02:55:44.618Z,7.45
2019-04-25T02:58:14.146Z,7.40
2019-04-25T03:00:54.835Z,6.53
2019-04-25T03:03:14.928Z,6.62
2019-04-25T03:05:47.294Z,7.37
2019-04-25T03:08:14.288Z,7.75
2019-04-25T03:10:44.493Z,7.70
2019-04-25T03:13:14.837Z,7.60
2019-04-25T03:15:44.264Z,6.67
2019-04-25T03:18:15.184Z,6.87
2019-04-25T03:20:48.387Z,7.95
2019-04-25T03:23:18.627Z,8.10
2019-04-25T03:25:47.213Z,7.25
2019-04-25T03:28:15.717Z,9.10
2019-04-25T03:30:44.968Z,8.48
2019-04-25T03:33:19.683Z,8.60
2019-04-25T03:35:46.585Z,7.78
2019-04-25T03:38:16.488Z,8.05
2019-04-25T03:40:44.960Z,7.65
2019-04-25T03:43:14.886Z,9.15
2019-04-25T03:45:45.331Z,8.70
2019-04-25T03:48:14.154Z,9.10
2019-04-25T03:50:44.061Z,8.58
2019-04-25T03:53:13.942Z,9.23
2019-04-25T03:55:44.367Z,8.68
2019-04-25T03:58:14.272Z,8.88
2019-04-25T04:00:44.680Z,8.25
2019-04-25T04:03:14.917Z,9.03
2019-04-25T04:05:44.234Z,8.53
2019-04-25T04:08:14.858Z,8.00
2019-04-25T04:10:43.369Z,8.93
2019-04-25T04:13:12.268Z,7.55
2019-04-25T04:15:40.988Z,8.50
2019-04-25T04:18:11.080Z,8.50
2019-04-25T04:20:47.231Z,8.55
2019-04-25T04:23:30.438Z,8.93
2019-04-25T04:25:59.047Z,8.53
2019-04-25T04:28:27.521Z,8.48
2019-04-25T04:30:55.962Z,9.20
2019-04-25T04:33:31.982Z,9.38
2019-04-25T04:35:54.700Z,8.30
2019-04-25T04:38:24.071Z,8.80
2019-04-25T04:40:52.847Z,8.23
2019-04-25T04:43:21.327Z,8.68
2019-04-25T04:45:49.815Z,8.20
2019-04-25T04:48:18.871Z,8.85
2019-04-25T04:50:47.527Z,8.68
2019-04-25T04:53:16.327Z,8.73
2019-04-25T04:55:45.825Z,8.73
2019-04-25T04:58:14.997Z,9.45
2019-04-25T05:00:46.211Z,9.40
2019-04-25T05:03:19.092Z,8.63
2019-04-25T05:06:01.010Z,8.50
2019-04-25T05:08:31.101Z,9.00
2019-04-25T05:10:59.653Z,8.68
2019-04-25T05:13:28.098Z,9.45
2019-04-25T05:15:56.892Z,9.18
2019-04-25T05:18:34.606Z,9.03
2019-04-25T05:20:55.551Z,9.30
2019-04-25T05:23:24.882Z,9.85
2019-04-25T05:25:53.920Z,8.88
2019-04-25T05:28:24.654Z,8.23
2019-04-25T05:30:56.247Z,8.48
2019-04-25T05:33:25.852Z,8.20
2019-04-25T05:35:54.574Z,8.30
2019-04-25T05:38:24.324Z,9.15
2019-04-25T05:40:57.644Z,8.85
2019-04-25T05:43:27.735Z,8.43
2019-04-25T05:45:56.296Z,8.30
2019-04-25T05:48:26.322Z,8.00
2019-04-25T05:50:55.313Z,7.45
2019-04-25T05:53:24.211Z,7.92
2019-04-25T05:55:54.636Z,7.85
2019-04-25T05:58:24.823Z,7.83
2019-04-25T06:01:13.384Z,7.50
2019-04-25T06:03:43.888Z,8.23
2019-04-25T06:06:13.404Z,7.90
2019-04-25T06:08:45.859Z,8.43
2019-04-25T06:11:15.995Z,7.95
2019-04-25T06:13:46.201Z,8.00
2019-04-25T06:16:16.498Z,7.80
2019-04-25T06:18:52.348Z,7.78
2019-04-25T06:21:21.392Z,6.87
2019-04-25T06:24:04.311Z,7.08
2019-04-25T06:26:39.591Z,6.50
2019-04-25T06:29:06.476Z,6.28
2019-04-25T06:31:34.978Z,6.50
2019-04-25T06:34:04.527Z,6.28
2019-04-25T06:36:35.219Z,5.90
2019-04-25T06:39:04.186Z,5.45
2019-04-25T06:41:34.046Z,5.70
2019-04-25T06:44:06.266Z,6.25
2019-04-25T06:46:48.909Z,4.83
2019-04-25T06:49:19.737Z,5.25
2019-04-25T06:51:49.184Z,5.20
2019-04-25T06:54:19.735Z,5.23
2019-04-25T06:56:48.509Z,5.17
2019-04-25T06:59:17.635Z,4.20
2019-04-25T07:01:46.294Z,4.45
2019-04-25T07:04:15.204Z,3.90
2019-04-25T07:06:45.502Z,4.20
2019-04-25T07:09:14.649Z,4.50
2019-04-25T07:11:44.173Z,3.92
2019-04-25T07:14:14.192Z,3.60
2019-04-25T07:16:43.369Z,3.83
2019-04-25T07:19:12.167Z,3.37
2019-04-25T07:21:40.682Z,2.90
2019-04-25T07:24:09.757Z,3.70
2019-04-25T07:26:45.899Z,3.40
2019-04-25T07:29:24.806Z,3.05
2019-04-25T07:31:54.357Z,2.80
2019-04-25T07:34:26.004Z,3.22
2019-04-25T07:36:54.864Z,2.50
2019-04-25T07:39:23.684Z,3.30
2019-04-25T07:41:54.006Z,2.62
2019-04-25T07:44:35.297Z,2.67
2019-04-25T07:46:54.565Z,2.47
2019-04-25T07:49:26.875Z,2.60
2019-04-25T07:51:55.639Z,2.33
2019-04-25T07:54:25.502Z,3.08
2019-04-25T07:56:55.110Z,3.33
2019-04-25T07:59:24.750Z,3.10
2019-04-25T08:01:54.844Z,2.67
2019-04-25T08:04:23.656Z,2.60
2019-04-25T08:06:54.176Z,2.67
2019-04-25T08:09:24.303Z,2.05
2019-04-25T08:11:54.853Z,2.45
2019-04-25T08:14:25.141Z,2.50
2019-04-25T08:16:55.607Z,2.55
2019-04-25T08:19:25.494Z,2.58
2019-04-25T08:21:55.356Z,2.77
2019-04-25T08:24:25.107Z,2.60
2019-04-25T08:26:53.773Z,2.92
2019-04-25T08:29:25.232Z,2.70
2019-04-25T08:31:53.651Z,2.72
2019-04-25T08:34:24.234Z,2.33
2019-04-25T08:36:54.335Z,2.83
2019-04-25T08:39:24.031Z,2.70
2019-04-25T08:41:53.986Z,2.55
2019-04-25T08:44:24.171Z,2.80
2019-04-25T08:46:53.566Z,2.50
2019-04-25T08:49:25.985Z,2.70
2019-04-25T08:51:56.122Z,2.08
2019-04-25T08:54:41.470Z,2.80
2019-04-25T08:57:10.107Z,2.27
2019-04-25T08:59:44.887Z,3.27
2019-04-25T09:02:30.097Z,1.67
2019-04-25T09:05:00.212Z,2.67
2019-04-25T09:07:29.002Z,2.35
2019-04-25T09:09:57.583Z,2.33
2019-04-25T09:12:26.162Z,2.30
2019-04-25T09:14:56.480Z,2.20
2019-04-25T09:17:25.328Z,2.42
2019-04-25T09:19:54.301Z,2.52
2019-04-25T09:22:24.319Z,2.10
2019-04-25T09:24:54.002Z,2.45
2019-04-25T09:27:23.527Z,2.02
2019-04-25T09:29:52.097Z,2.05
2019-04-25T09:32:20.576Z,2.00
2019-04-25T09:34:50.133Z,2.05
2019-04-25T09:37:18.769Z,2.23
2019-04-25T09:40:00.854Z,1.87
2019-04-25T09:42:33.808Z,2.10
2019-04-25T09:45:20.840Z,2.33
2019-04-25T09:47:51.123Z,2.58
2019-04-25T09:50:21.258Z,2.10
2019-04-25T09:52:49.746Z,2.20
2019-04-25T09:55:31.640Z,2.17
2019-04-25T09:58:07.544Z,1.98
2019-04-25T10:00:40.463Z,2.22
2019-04-25T10:03:08.939Z,1.60
2019-04-25T10:05:38.366Z,1.42
2019-04-25T10:08:07.247Z,2.10
2019-04-25T10:10:35.792Z,1.98
2019-04-25T10:13:06.510Z,1.60
2019-04-25T10:16:00.080Z,1.42
2019-04-25T10:20:56.262Z,1.47
2019-04-25T10:23:24.740Z,1.70
2019-04-25T10:25:53.804Z,1.70
2019-04-25T10:28:23.931Z,1.62
2019-04-25T10:30:53.103Z,1.60
2019-04-25T10:33:26.079Z,1.55
2019-04-25T10:35:59.469Z,1.87
2019-04-25T10:38:27.271Z,1.32
2019-04-25T10:40:56.100Z,1.80
2019-04-25T10:43:24.547Z,1.27
2019-04-25T10:45:55.095Z,1.70
2019-04-25T10:48:24.896Z,1.40
2019-04-25T10:50:55.701Z,1.50
2019-04-25T10:53:25.243Z,2.05
2019-04-25T10:55:53.985Z,1.32
2019-04-25T10:58:23.083Z,1.30
2019-04-25T11:00:53.669Z,1.65
2019-04-25T11:03:36.035Z,2.22
2019-04-25T11:06:05.296Z,1.50
2019-04-25T11:08:34.235Z,1.62
2019-04-25T11:11:03.797Z,1.80
2019-04-25T11:13:35.491Z,1.57
2019-04-25T11:16:06.269Z,1.90
2019-04-25T11:18:34.853Z,1.87
2019-04-25T11:21:04.306Z,1.75
2019-04-25T11:23:33.659Z,1.60
2019-04-25T11:26:03.738Z,1.95
2019-04-25T11:28:33.778Z,1.55
2019-04-25T11:31:04.139Z,1.50
2019-04-25T11:33:35.348Z,1.70
2019-04-25T11:36:05.464Z,1.50
2019-04-25T11:38:35.580Z,1.75
2019-04-25T11:41:09.360Z,1.50
2019-04-25T11:43:37.810Z,1.77
2019-04-25T11:46:06.419Z,1.67
2019-04-25T11:48:37.339Z,1.50
2019-04-25T11:51:06.284Z,1.60
2019-04-25T11:53:34.811Z,1.72
2019-04-25T11:56:03.779Z,1.27
2019-04-25T11:58:33.955Z,1.70
2019-04-25T12:01:05.156Z,1.50
2019-04-25T12:03:34.166Z,1.77
2019-04-25T12:06:03.980Z,1.75
2019-04-25T12:08:33.562Z,1.70
2019-04-25T12:11:03.530Z,1.80
2019-04-25T12:13:32.068Z,1.77
2019-04-25T12:16:00.535Z,1.72
2019-04-25T12:18:29.015Z,1.27
2019-04-25T12:20:58.894Z,1.80
2019-04-25T12:23:28.707Z,1.50
2019-04-25T12:25:57.628Z,2.10
2019-04-25T12:28:26.626Z,1.37
2019-04-25T12:30:56.427Z,1.90
2019-04-25T12:33:25.606Z,1.62
2019-04-25T12:35:55.275Z,1.62
2019-04-25T12:38:24.621Z,1.92
2019-04-25T12:40:54.414Z,1.87
2019-04-25T12:43:25.115Z,1.77
2019-04-25T12:45:58.301Z,1.80
2019-04-25T12:48:27.211Z,2.02
2019-04-25T12:50:56.679Z,1.72
2019-04-25T12:53:26.113Z,2.05
2019-04-25T12:55:54.917Z,2.10
2019-04-25T12:58:24.174Z,1.72
2019-04-25T13:00:55.685Z,1.62
2019-04-25T13:03:24.153Z,1.87
2019-04-25T13:05:54.042Z,1.60
2019-04-25T13:08:24.228Z,1.55
2019-04-25T13:10:54.381Z,1.50
2019-04-25T13:13:24.167Z,1.22
2019-04-25T13:15:53.391Z,1.60
2019-04-25T13:18:21.991Z,1.27
2019-04-25T13:20:50.440Z,1.67
2019-04-25T13:23:20.535Z,1.97
2019-04-25T13:25:49.539Z,2.83
2019-04-25T13:28:23.368Z,1.62
2019-04-25T13:31:04.045Z,1.92
2019-04-25T13:33:30.979Z,1.47
2019-04-25T13:36:13.255Z,1.60
2019-04-25T13:38:43.660Z,2.22
2019-04-25T13:41:15.933Z,2.20
2019-04-25T13:43:44.159Z,2.05
2019-04-25T13:46:16.912Z,1.80
2019-04-25T13:48:43.726Z,2.05
2019-04-25T13:51:14.057Z,2.00
2019-04-25T13:53:43.482Z,2.27
2019-04-25T13:56:13.333Z,2.20
2019-04-25T13:58:44.440Z,2.40
2019-04-25T14:01:16.982Z,2.67
2019-04-25T14:03:45.157Z,2.20
2019-04-25T14:06:13.760Z,2.72
2019-04-25T14:08:43.508Z,3.27
2019-04-25T14:11:13.626Z,3.37
2019-04-25T14:13:43.999Z,3.33
2019-04-25T14:16:17.118Z,3.00
2019-04-25T14:18:50.307Z,3.20
2019-04-25T14:21:20.659Z,2.93
2019-04-25T14:23:50.107Z,3.15
2019-04-25T14:26:19.218Z,3.10
2019-04-25T14:28:49.421Z,2.80
2019-04-25T14:31:33.761Z,2.50
2019-04-25T14:33:51.699Z,2.47
2019-04-25T14:36:19.954Z,2.23
2019-04-25T14:38:48.479Z,2.20
2019-04-25T14:41:16.961Z,2.00
2019-04-25T14:43:46.494Z,1.80
2019-04-25T14:46:15.334Z,2.30
2019-04-25T14:48:43.802Z,2.20
2019-04-25T14:51:16.630Z,1.67
2019-04-25T14:53:45.082Z,1.40
2019-04-25T14:56:21.647Z,2.20
2019-04-25T14:58:51.092Z,1.67
2019-04-25T15:01:21.612Z,1.40
2019-04-25T15:03:51.452Z,1.40
2019-04-25T15:06:19.955Z,1.10
2019-04-25T15:08:48.405Z,1.30
2019-04-25T15:11:18.523Z,1.05
2019-04-25T15:13:47.320Z,1.00
2019-04-25T15:16:15.761Z,1.10
2019-04-25T15:18:47.237Z,0.75
2019-04-25T15:21:18.599Z,1.07
2019-04-25T15:23:46.209Z,0.80
2019-04-25T15:26:14.707Z,0.90
2019-04-25T15:28:43.640Z,0.78
2019-04-25T15:31:13.515Z,0.90
2019-04-25T15:33:44.275Z,0.68
2019-04-25T15:36:14.527Z,0.80
2019-04-25T15:38:44.622Z,0.62
2019-04-25T15:41:18.018Z,0.62
2019-04-25T15:43:59.739Z,0.80
2019-04-25T15:46:30.236Z,0.70
2019-04-25T15:48:58.893Z,0.60
2019-04-25T15:51:27.415Z,0.90
2019-04-25T15:53:55.868Z,1.10
2019-04-25T15:56:24.540Z,0.90
2019-04-25T15:58:53.103Z,0.72
2019-04-25T16:01:22.018Z,0.70
2019-04-25T16:03:53.903Z,0.60
2019-04-25T16:06:22.806Z,1.00
2019-04-25T16:08:51.316Z,0.72
2019-04-25T16:11:19.763Z,0.78
2019-04-25T16:13:48.236Z,0.80
2019-04-25T16:16:16.754Z,0.70
2019-04-25T16:18:45.222Z,0.50
2019-04-25T16:21:13.956Z,0.50
2019-04-25T16:23:42.655Z,0.70
2019-04-25T16:26:12.538Z,0.60
2019-04-25T16:28:41.200Z,0.60
2019-04-25T16:31:11.403Z,0.55
2019-04-25T16:33:39.862Z,0.62
2019-04-25T16:36:09.289Z,0.70
2019-04-25T16:38:39.027Z,0.93
2019-04-25T16:41:07.759Z,0.80
2019-04-25T16:43:39.172Z,0.80
2019-04-25T16:46:07.708Z,0.80
2019-04-25T16:48:36.248Z,0.70
2019-04-25T16:51:04.790Z,0.70
2019-04-25T16:53:33.321Z,0.90
2019-04-25T16:56:01.933Z,0.50
2019-04-25T16:58:30.936Z,0.70
2019-04-25T17:01:01.276Z,0.80
2019-04-25T17:03:30.352Z,0.78
2019-04-25T17:06:00.140Z,0.80
2019-04-25T17:08:29.827Z,0.80
2019-04-25T17:10:58.950Z,0.70
2019-04-25T17:13:29.516Z,0.75
2019-04-25T17:16:02.214Z,0.70
2019-04-25T17:18:47.347Z,1.00
2019-04-25T17:21:15.899Z,0.62
2019-04-25T17:23:44.367Z,0.90
2019-04-25T17:26:13.219Z,0.70
2019-04-25T17:28:51.535Z,0.90
2019-04-25T17:31:21.700Z,0.90
2019-04-25T17:34:00.767Z,0.62
2019-04-25T17:36:35.720Z,0.80
2019-04-25T17:39:24.776Z,0.80
2019-04-25T17:41:53.239Z,0.88
2019-04-25T17:44:21.814Z,0.72
2019-04-25T17:46:50.295Z,0.98
2019-04-25T17:49:18.741Z,0.90
2019-04-25T17:51:47.197Z,0.80
2019-04-25T17:54:18.297Z,1.05
2019-04-25T17:56:45.824Z,0.90
2019-04-25T17:59:14.548Z,1.32
2019-04-25T18:01:44.258Z,1.47
2019-04-25T18:04:13.113Z,1.40
2019-04-25T18:06:42.098Z,1.60
2019-04-25T18:09:11.429Z,1.50
2019-04-25T18:11:40.251Z,1.80
2019-04-25T18:14:09.038Z,1.77
2019-04-25T18:16:46.499Z,1.77
2019-04-25T18:19:16.828Z,1.70
2019-04-25T18:21:46.794Z,1.50
2019-04-25T18:24:29.119Z,1.40
2019-04-25T18:27:02.443Z,1.65
2019-04-25T18:31:58.873Z,1.55
2019-04-25T18:34:38.239Z,1.42
2019-04-25T18:37:14.784Z,1.45
2019-04-25T18:39:46.168Z,1.67
2019-04-25T18:42:21.209Z,1.42
2019-04-25T18:44:50.344Z,1.60
2019-04-25T18:47:18.797Z,1.37
2019-04-25T18:49:47.337Z,1.07
2019-04-25T18:52:23.699Z,1.42
2019-04-25T18:55:00.130Z,1.17
2019-04-25T18:57:30.365Z,0.90
2019-04-25T19:00:03.117Z,1.20
2019-04-25T19:02:39.786Z,1.20
2019-04-25T19:05:10.177Z,1.20
2019-04-25T19:07:39.564Z,1.05
2019-04-25T19:10:09.513Z,1.15
2019-04-25T19:12:38.759Z,1.12
2019-04-25T19:15:08.280Z,1.05
2019-04-25T19:17:36.854Z,1.07
2019-04-25T19:20:05.854Z,1.27
2019-04-25T19:22:34.322Z,1.25
2019-04-25T19:25:02.861Z,1.10
2019-04-25T19:27:31.433Z,1.00
2019-04-25T19:29:59.916Z,1.15
2019-04-25T19:32:28.866Z,1.30
2019-04-25T19:34:57.331Z,1.45
2019-04-25T19:37:25.925Z,1.40
2019-04-25T19:40:12.576Z,1.65
2019-04-25T19:42:45.439Z,1.75
2019-04-25T19:45:14.274Z,1.72
2019-04-25T19:47:43.010Z,1.72
2019-04-25T19:50:11.809Z,1.70
2019-04-25T19:52:41.374Z,1.62
2019-04-25T19:55:10.776Z,1.95
2019-04-25T19:57:39.278Z,2.12
2019-04-25T20:00:08.345Z,1.90
2019-04-25T20:02:38.518Z,2.08
2019-04-25T20:05:09.014Z,2.22
2019-04-25T20:07:39.326Z,3.45
2019-04-25T20:10:09.565Z,4.17
2019-04-25T20:12:39.675Z,3.77
2019-04-25T20:15:08.544Z,4.35
2019-04-25T20:17:37.081Z,4.72
2019-04-25T20:20:07.687Z,8.15
2019-04-25T20:22:36.159Z,4.70
2019-04-25T20:25:05.746Z,4.75
2019-04-25T20:27:34.230Z,3.77
2019-04-25T20:30:03.413Z,3.70
2019-04-25T20:32:31.893Z,3.08
2019-04-25T20:35:00.407Z,2.60
2019-04-25T20:37:28.898Z,2.50
2019-04-25T20:39:57.350Z,2.17
2019-04-25T20:42:25.893Z,1.47
2019-04-25T20:44:56.710Z,1.60
2019-04-25T20:47:25.219Z,1.45
2019-04-25T20:49:53.779Z,44.27
2019-04-25T20:52:23.122Z,7.22
2019-04-25T20:54:52.785Z,11.00
2019-04-25T20:57:21.606Z,8.63
2019-04-25T20:59:50.108Z,3.35
2019-04-25T21:02:18.699Z,2.75
2019-04-25T21:04:47.742Z,2.72
2019-04-25T21:07:17.349Z,2.70
2019-04-25T21:09:45.897Z,2.60
2019-04-25T21:12:14.350Z,2.42
2019-04-25T21:14:44.552Z,2.17
2019-04-25T21:17:30.568Z,2.30
2019-04-25T21:20:00.690Z,2.40
2019-04-25T21:22:29.143Z,2.98
2019-04-25T21:24:57.953Z,8.60
2019-04-25T21:27:26.739Z,3.02
2019-04-25T21:29:55.622Z,3.00
2019-04-25T21:32:24.985Z,2.75
2019-04-25T21:34:55.201Z,5.33
2019-04-25T21:37:25.159Z,2.90
2019-04-25T21:40:07.785Z,3.27
2019-04-25T21:42:47.792Z,2.73
2019-04-25T21:45:17.593Z,2.60
2019-04-25T21:47:46.920Z,3.02
2019-04-25T21:50:16.631Z,2.67
2019-04-25T21:52:45.591Z,2.35
2019-04-25T21:55:14.672Z,4.22
2019-04-25T21:57:48.688Z,2.12
2019-04-25T22:00:20.020Z,3.30
2019-04-25T22:02:48.948Z,3.52
2019-04-25T22:05:17.991Z,2.97
2019-04-25T22:07:46.942Z,2.53
2019-04-25T22:10:16.657Z,2.55
2019-04-25T22:12:46.969Z,2.40
2019-04-25T22:15:18.197Z,1.77
2019-04-25T22:17:46.827Z,1.80
2019-04-25T22:20:15.533Z,1.80
2019-04-25T22:22:44.894Z,1.87
2019-04-25T22:25:13.419Z,1.90
2019-04-25T22:27:42.299Z,1.57
2019-04-25T22:30:13.375Z,1.98
2019-04-25T22:32:44.054Z,1.90
2019-04-25T22:35:17.295Z,1.12
2019-04-25T22:37:45.808Z,1.75
2019-04-25T22:40:14.585Z,1.50
2019-04-25T22:42:43.019Z,1.62
2019-04-25T22:45:13.229Z,1.22
2019-04-25T22:47:41.824Z,1.30
2019-04-25T22:50:12.678Z,1.25
2019-04-25T22:52:41.231Z,1.45
2019-04-25T22:55:10.034Z,1.45
2019-04-25T22:57:39.008Z,1.40
2019-04-25T23:00:11.302Z,1.52
2019-04-25T23:02:41.693Z,1.55
2019-04-25T23:05:16.306Z,1.72
2019-04-25T23:07:45.139Z,1.40
2019-04-25T23:10:14.136Z,1.57
2019-04-25T23:12:42.595Z,1.70
2019-04-25T23:15:11.508Z,1.50
2019-04-25T23:17:40.095Z,1.70
2019-04-25T23:20:09.724Z,1.50
2019-04-25T23:22:39.769Z,1.60
2019-04-25T23:25:11.984Z,1.50
2019-04-25T23:27:42.231Z,1.30
2019-04-25T23:30:14.494Z,1.50
2019-04-25T23:32:43.179Z,1.60
2019-04-25T23:35:24.247Z,1.42
2019-04-25T23:37:42.024Z,1.35
2019-04-25T23:40:11.568Z,1.60
2019-04-25T23:42:40.305Z,1.75
2019-04-25T23:45:10.359Z,1.90
2019-04-25T23:47:39.187Z,1.90
2019-04-25T23:50:08.672Z,1.77
2019-04-25T23:52:37.885Z,1.40
2019-04-25T23:55:08.342Z,2.00
2019-04-25T23:57:37.859Z,1.67
